sensor_id;sensor_type;location;lat;lon;timestamp;temperature;humidity
69944;DHT22;57257;48.408;-4.498;2023-03-13T00:00:14;13.48;82.35
69944;DHT22;57257;48.408;-4.498;2023-03-13T00:02:40;13.45;82.44
69944;DHT22;57257;48.408;-4.498;2023-03-13T00:05:05;13.46;82.43
69944;DHT22;57257;48.408;-4.498;2023-03-13T00:07:31;13.46;82.48
69944;DHT22;57257;48.408;-4.498;2023-03-13T00:09:56;13.46;82.45
69944;DHT22;57257;48.408;-4.498;2023-03-13T00:12:22;13.43;82.56
69944;DHT22;57257;48.408;-4.498;2023-03-13T00:14:47;13.45;82.62
69944;DHT22;57257;48.408;-4.498;2023-03-13T00:17:12;13.48;82.63
69944;DHT22;57257;48.408;-4.498;2023-03-13T00:19:38;13.46;82.57
69944;DHT22;57257;48.408;-4.498;2023-03-13T00:22:03;13.42;82.89
69944;DHT22;57257;48.408;-4.498;2023-03-13T00:24:29;13.35;83.02
69944;DHT22;57257;48.408;-4.498;2023-03-13T00:26:54;13.35;83.28
69944;DHT22;57257;48.408;-4.498;2023-03-13T00:29:20;13.38;83.20
69944;DHT22;57257;48.408;-4.498;2023-03-13T00:31:45;13.39;83.27
69944;DHT22;57257;48.408;-4.498;2023-03-13T00:34:10;13.38;83.41
69944;DHT22;57257;48.408;-4.498;2023-03-13T00:36:36;13.38;83.40
69944;DHT22;57257;48.408;-4.498;2023-03-13T00:39:03;13.36;83.54
69944;DHT22;57257;48.408;-4.498;2023-03-13T00:41:31;13.35;83.59
69944;DHT22;57257;48.408;-4.498;2023-03-13T00:43:57;13.36;83.67
69944;DHT22;57257;48.408;-4.498;2023-03-13T00:46:25;13.34;83.66
69944;DHT22;57257;48.408;-4.498;2023-03-13T00:48:51;13.35;83.74
69944;DHT22;57257;48.408;-4.498;2023-03-13T00:51:19;13.35;83.90
69944;DHT22;57257;48.408;-4.498;2023-03-13T00:53:44;13.34;83.97
69944;DHT22;57257;48.408;-4.498;2023-03-13T00:56:13;13.28;84.24
69944;DHT22;57257;48.408;-4.498;2023-03-13T00:58:40;13.28;84.26
69944;DHT22;57257;48.408;-4.498;2023-03-13T01:03:50;13.28;84.37
69944;DHT22;57257;48.408;-4.498;2023-03-13T01:06:19;13.26;84.49
69944;DHT22;57257;48.408;-4.498;2023-03-13T01:08:45;13.25;84.51
69944;DHT22;57257;48.408;-4.498;2023-03-13T01:11:19;13.26;84.52
69944;DHT22;57257;48.408;-4.498;2023-03-13T01:13:45;13.26;84.55
69944;DHT22;57257;48.408;-4.498;2023-03-13T01:16:19;13.25;84.70
69944;DHT22;57257;48.408;-4.498;2023-03-13T01:18:48;13.28;84.72
69944;DHT22;57257;48.408;-4.498;2023-03-13T01:21:15;13.29;84.59
69944;DHT22;57257;48.408;-4.498;2023-03-13T01:23:41;13.26;84.64
69944;DHT22;57257;48.408;-4.498;2023-03-13T01:26:07;13.26;84.68
69944;DHT22;57257;48.408;-4.498;2023-03-13T01:28:34;13.23;84.80
69944;DHT22;57257;48.408;-4.498;2023-03-13T01:31:00;13.22;84.76
69944;DHT22;57257;48.408;-4.498;2023-03-13T01:33:26;13.22;84.82
69944;DHT22;57257;48.408;-4.498;2023-03-13T01:35:51;13.25;84.77
69944;DHT22;57257;48.408;-4.498;2023-03-13T01:38:17;13.23;84.72
69944;DHT22;57257;48.408;-4.498;2023-03-13T01:40:46;13.25;84.59
69944;DHT22;57257;48.408;-4.498;2023-03-13T01:43:19;13.22;84.56
69944;DHT22;57257;48.408;-4.498;2023-03-13T01:51:30;13.26;84.28
69944;DHT22;57257;48.408;-4.498;2023-03-13T01:57:01;13.32;84.02
69944;DHT22;57257;48.408;-4.498;2023-03-13T01:59:32;13.38;83.90
69944;DHT22;57257;48.408;-4.498;2023-03-13T02:02:01;13.40;83.75
69944;DHT22;57257;48.408;-4.498;2023-03-13T02:04:32;13.45;83.55
69944;DHT22;57257;48.408;-4.498;2023-03-13T02:07:02;13.45;83.38
69944;DHT22;57257;48.408;-4.498;2023-03-13T02:09:30;13.43;83.45
69944;DHT22;57257;48.408;-4.498;2023-03-13T02:12:03;13.43;83.25
69944;DHT22;57257;48.408;-4.498;2023-03-13T02:14:32;13.45;83.18
69944;DHT22;57257;48.408;-4.498;2023-03-13T02:17:00;13.49;83.12
69944;DHT22;57257;48.408;-4.498;2023-03-13T02:19:44;13.43;83.12
69944;DHT22;57257;48.408;-4.498;2023-03-13T02:22:24;13.48;83.04
69944;DHT22;57257;48.408;-4.498;2023-03-13T02:25:00;13.43;82.86
69944;DHT22;57257;48.408;-4.498;2023-03-13T02:27:26;13.43;82.79
69944;DHT22;57257;48.408;-4.498;2023-03-13T02:29:52;13.45;82.79
69944;DHT22;57257;48.408;-4.498;2023-03-13T02:32:18;13.45;82.98
69944;DHT22;57257;48.408;-4.498;2023-03-13T02:34:47;13.46;83.26
69944;DHT22;57257;48.408;-4.498;2023-03-13T02:37:15;13.46;83.38
69944;DHT22;57257;48.408;-4.498;2023-03-13T02:39:45;13.45;83.43
69944;DHT22;57257;48.408;-4.498;2023-03-13T02:42:13;13.46;83.48
69944;DHT22;57257;48.408;-4.498;2023-03-13T02:44:40;13.43;83.41
69944;DHT22;57257;48.408;-4.498;2023-03-13T02:47:06;13.42;83.50
69944;DHT22;57257;48.408;-4.498;2023-03-13T02:49:33;13.42;83.58
69944;DHT22;57257;48.408;-4.498;2023-03-13T02:54:37;13.42;83.44
69944;DHT22;57257;48.408;-4.498;2023-03-13T02:57:04;13.36;83.51
69944;DHT22;57257;48.408;-4.498;2023-03-13T02:59:30;13.35;83.51
69944;DHT22;57257;48.408;-4.498;2023-03-13T03:01:56;13.34;83.51
69944;DHT22;57257;48.408;-4.498;2023-03-13T03:06:57;13.32;83.47
69944;DHT22;57257;48.408;-4.498;2023-03-13T03:09:23;13.30;83.45
69944;DHT22;57257;48.408;-4.498;2023-03-13T03:11:49;13.29;83.36
69944;DHT22;57257;48.408;-4.498;2023-03-13T03:14:15;13.32;83.33
69944;DHT22;57257;48.408;-4.498;2023-03-13T03:16:41;13.36;83.17
69944;DHT22;57257;48.408;-4.498;2023-03-13T03:19:07;13.36;83.13
69944;DHT22;57257;48.408;-4.498;2023-03-13T03:21:33;13.32;83.21
69944;DHT22;57257;48.408;-4.498;2023-03-13T03:23:59;13.34;83.17
69944;DHT22;57257;48.408;-4.498;2023-03-13T03:26:25;13.32;83.13
69944;DHT22;57257;48.408;-4.498;2023-03-13T03:28:50;13.29;83.02
69944;DHT22;57257;48.408;-4.498;2023-03-13T03:31:16;13.29;82.98
69944;DHT22;57257;48.408;-4.498;2023-03-13T03:33:43;13.32;82.93
69944;DHT22;57257;48.408;-4.498;2023-03-13T03:36:11;13.30;82.83
69944;DHT22;57257;48.408;-4.498;2023-03-13T03:38:38;13.30;82.78
69944;DHT22;57257;48.408;-4.498;2023-03-13T03:41:04;13.29;82.67
69944;DHT22;57257;48.408;-4.498;2023-03-13T03:43:30;13.28;82.63
69944;DHT22;57257;48.408;-4.498;2023-03-13T03:45:55;13.25;82.69
69944;DHT22;57257;48.408;-4.498;2023-03-13T03:48:21;13.25;82.52
69944;DHT22;57257;48.408;-4.498;2023-03-13T03:50:46;13.32;82.39
69944;DHT22;57257;48.408;-4.498;2023-03-13T03:53:11;13.30;82.32
69944;DHT22;57257;48.408;-4.498;2023-03-13T03:55:37;13.29;82.25
69944;DHT22;57257;48.408;-4.498;2023-03-13T03:58:03;13.26;81.97
69944;DHT22;57257;48.408;-4.498;2023-03-13T04:00:29;13.28;81.60
69944;DHT22;57257;48.408;-4.498;2023-03-13T04:02:54;13.25;81.38
69944;DHT22;57257;48.408;-4.498;2023-03-13T04:05:23;13.20;81.37
69944;DHT22;57257;48.408;-4.498;2023-03-13T04:07:49;13.25;81.40
69944;DHT22;57257;48.408;-4.498;2023-03-13T04:10:14;13.23;81.40
69944;DHT22;57257;48.408;-4.498;2023-03-13T04:12:40;13.22;81.38
69944;DHT22;57257;48.408;-4.498;2023-03-13T04:15:06;13.22;81.19
69944;DHT22;57257;48.408;-4.498;2023-03-13T04:17:32;13.19;81.05
69944;DHT22;57257;48.408;-4.498;2023-03-13T04:19:58;13.20;81.00
69944;DHT22;57257;48.408;-4.498;2023-03-13T04:22:23;13.16;80.94
69944;DHT22;57257;48.408;-4.498;2023-03-13T04:24:49;13.16;80.81
69944;DHT22;57257;48.408;-4.498;2023-03-13T04:27:14;13.16;80.69
69944;DHT22;57257;48.408;-4.498;2023-03-13T04:29:40;13.15;80.63
69944;DHT22;57257;48.408;-4.498;2023-03-13T04:32:06;13.15;80.36
69944;DHT22;57257;48.408;-4.498;2023-03-13T04:34:31;13.18;80.21
69944;DHT22;57257;48.408;-4.498;2023-03-13T04:36:57;13.18;80.09
69944;DHT22;57257;48.408;-4.498;2023-03-13T04:39:22;13.15;80.05
69944;DHT22;57257;48.408;-4.498;2023-03-13T04:41:53;13.12;80.12
69944;DHT22;57257;48.408;-4.498;2023-03-13T04:44:20;13.12;80.20
69944;DHT22;57257;48.408;-4.498;2023-03-13T04:46:46;13.12;80.30
69944;DHT22;57257;48.408;-4.498;2023-03-13T04:49:12;13.09;80.45
69944;DHT22;57257;48.408;-4.498;2023-03-13T04:51:39;13.05;80.51
69944;DHT22;57257;48.408;-4.498;2023-03-13T04:54:05;13.08;80.33
69944;DHT22;57257;48.408;-4.498;2023-03-13T04:56:30;13.08;80.19
69944;DHT22;57257;48.408;-4.498;2023-03-13T04:58:56;13.07;80.09
69944;DHT22;57257;48.408;-4.498;2023-03-13T05:01:21;13.05;79.87
69944;DHT22;57257;48.408;-4.498;2023-03-13T05:03:47;13.09;79.64
69944;DHT22;57257;48.408;-4.498;2023-03-13T05:06:12;13.11;79.47
69944;DHT22;57257;48.408;-4.498;2023-03-13T05:08:38;13.11;79.28
69944;DHT22;57257;48.408;-4.498;2023-03-13T05:11:03;13.08;79.23
69944;DHT22;57257;48.408;-4.498;2023-03-13T05:13:29;13.08;79.21
69944;DHT22;57257;48.408;-4.498;2023-03-13T05:15:55;13.08;79.21
69944;DHT22;57257;48.408;-4.498;2023-03-13T05:18:20;13.05;79.19
69944;DHT22;57257;48.408;-4.498;2023-03-13T05:20:46;13.07;79.07
69944;DHT22;57257;48.408;-4.498;2023-03-13T05:23:11;13.07;79.12
69944;DHT22;57257;48.408;-4.498;2023-03-13T05:25:37;13.04;79.12
69944;DHT22;57257;48.408;-4.498;2023-03-13T05:28:02;13.02;79.14
69944;DHT22;57257;48.408;-4.498;2023-03-13T05:30:28;13.02;79.10
69944;DHT22;57257;48.408;-4.498;2023-03-13T05:32:53;13.04;78.99
69944;DHT22;57257;48.408;-4.498;2023-03-13T05:35:19;13.04;78.98
69944;DHT22;57257;48.408;-4.498;2023-03-13T05:37:44;13.02;78.94
69944;DHT22;57257;48.408;-4.498;2023-03-13T05:40:11;13.02;78.87
69944;DHT22;57257;48.408;-4.498;2023-03-13T05:42:37;13.05;78.84
69944;DHT22;57257;48.408;-4.498;2023-03-13T05:45:02;13.05;78.72
69944;DHT22;57257;48.408;-4.498;2023-03-13T05:47:28;13.09;78.46
69944;DHT22;57257;48.408;-4.498;2023-03-13T05:49:53;13.07;78.47
69944;DHT22;57257;48.408;-4.498;2023-03-13T05:52:19;13.09;78.45
69944;DHT22;57257;48.408;-4.498;2023-03-13T05:54:44;13.11;78.45
69944;DHT22;57257;48.408;-4.498;2023-03-13T05:57:09;13.09;78.41
69944;DHT22;57257;48.408;-4.498;2023-03-13T05:59:35;13.07;78.46
69944;DHT22;57257;48.408;-4.498;2023-03-13T06:02:00;13.07;78.57
69944;DHT22;57257;48.408;-4.498;2023-03-13T06:04:26;13.11;78.66
69944;DHT22;57257;48.408;-4.498;2023-03-13T06:06:51;13.09;78.77
69944;DHT22;57257;48.408;-4.498;2023-03-13T06:09:17;13.07;78.82
69944;DHT22;57257;48.408;-4.498;2023-03-13T06:11:42;13.05;78.86
69944;DHT22;57257;48.408;-4.498;2023-03-13T06:14:08;13.05;78.75
69944;DHT22;57257;48.408;-4.498;2023-03-13T06:16:33;12.99;78.80
69944;DHT22;57257;48.408;-4.498;2023-03-13T06:18:59;12.97;78.74
69944;DHT22;57257;48.408;-4.498;2023-03-13T06:21:24;12.98;78.78
69944;DHT22;57257;48.408;-4.498;2023-03-13T06:23:50;12.98;78.67
69944;DHT22;57257;48.408;-4.498;2023-03-13T06:26:15;12.99;78.62
69944;DHT22;57257;48.408;-4.498;2023-03-13T06:28:41;12.99;78.63
69944;DHT22;57257;48.408;-4.498;2023-03-13T06:31:06;13.04;78.55
69944;DHT22;57257;48.408;-4.498;2023-03-13T06:33:32;13.07;78.58
69944;DHT22;57257;48.408;-4.498;2023-03-13T06:35:59;13.07;78.64
69944;DHT22;57257;48.408;-4.498;2023-03-13T06:38:26;13.04;78.66
69944;DHT22;57257;48.408;-4.498;2023-03-13T06:40:52;13.04;78.59
69944;DHT22;57257;48.408;-4.498;2023-03-13T06:43:17;13.07;78.27
69944;DHT22;57257;48.408;-4.498;2023-03-13T06:45:43;13.02;77.46
69944;DHT22;57257;48.408;-4.498;2023-03-13T06:48:08;13.07;77.36
69944;DHT22;57257;48.408;-4.498;2023-03-13T06:50:37;13.07;77.13
69944;DHT22;57257;48.408;-4.498;2023-03-13T06:53:02;13.12;77.08
69944;DHT22;57257;48.408;-4.498;2023-03-13T06:55:28;13.14;76.98
69944;DHT22;57257;48.408;-4.498;2023-03-13T06:57:53;13.14;76.78
69944;DHT22;57257;48.408;-4.498;2023-03-13T07:00:19;13.14;77.04
69944;DHT22;57257;48.408;-4.498;2023-03-13T07:02:44;13.14;77.28
69944;DHT22;57257;48.408;-4.498;2023-03-13T07:05:10;13.16;77.42
69944;DHT22;57257;48.408;-4.498;2023-03-13T07:07:35;13.12;77.49
69944;DHT22;57257;48.408;-4.498;2023-03-13T07:10:01;13.12;77.47
69944;DHT22;57257;48.408;-4.498;2023-03-13T07:12:27;13.11;77.51
69944;DHT22;57257;48.408;-4.498;2023-03-13T07:14:52;13.08;77.43
69944;DHT22;57257;48.408;-4.498;2023-03-13T07:17:18;13.07;77.48
69944;DHT22;57257;48.408;-4.498;2023-03-13T07:19:43;13.07;77.53
69944;DHT22;57257;48.408;-4.498;2023-03-13T07:22:09;13.08;77.48
69944;DHT22;57257;48.408;-4.498;2023-03-13T07:24:34;13.12;77.46
69944;DHT22;57257;48.408;-4.498;2023-03-13T07:27:00;13.09;77.26
69944;DHT22;57257;48.408;-4.498;2023-03-13T07:29:25;13.12;77.14
69944;DHT22;57257;48.408;-4.498;2023-03-13T07:31:51;13.12;76.78
69944;DHT22;57257;48.408;-4.498;2023-03-13T07:34:16;13.15;76.38
69944;DHT22;57257;48.408;-4.498;2023-03-13T07:36:42;13.19;76.47
69944;DHT22;57257;48.408;-4.498;2023-03-13T07:39:08;13.20;76.27
69944;DHT22;57257;48.408;-4.498;2023-03-13T07:41:33;13.16;76.32
69944;DHT22;57257;48.408;-4.498;2023-03-13T07:43:59;13.16;76.37
69944;DHT22;57257;48.408;-4.498;2023-03-13T07:46:24;13.18;76.46
69944;DHT22;57257;48.408;-4.498;2023-03-13T07:48:50;13.18;76.46
69944;DHT22;57257;48.408;-4.498;2023-03-13T07:51:22;13.15;76.67
69944;DHT22;57257;48.408;-4.498;2023-03-13T07:53:48;13.12;76.68
69944;DHT22;57257;48.408;-4.498;2023-03-13T07:56:15;13.16;76.77
69944;DHT22;57257;48.408;-4.498;2023-03-13T07:58:42;13.19;76.52
69944;DHT22;57257;48.408;-4.498;2023-03-13T08:01:16;13.20;76.46
69944;DHT22;57257;48.408;-4.498;2023-03-13T08:03:41;13.18;76.43
69944;DHT22;57257;48.408;-4.498;2023-03-13T08:06:09;13.12;76.53
69944;DHT22;57257;48.408;-4.498;2023-03-13T08:08:36;13.14;76.67
69944;DHT22;57257;48.408;-4.498;2023-03-13T08:11:13;13.15;76.88
69944;DHT22;57257;48.408;-4.498;2023-03-13T08:13:50;13.16;76.88
69944;DHT22;57257;48.408;-4.498;2023-03-13T08:16:20;13.15;76.80
69944;DHT22;57257;48.408;-4.498;2023-03-13T08:18:48;13.16;76.78
69944;DHT22;57257;48.408;-4.498;2023-03-13T08:21:28;13.20;76.77
69944;DHT22;57257;48.408;-4.498;2023-03-13T08:23:55;13.14;76.62
69944;DHT22;57257;48.408;-4.498;2023-03-13T08:26:24;13.20;76.45
69944;DHT22;57257;48.408;-4.498;2023-03-13T08:28:59;13.18;76.51
69944;DHT22;57257;48.408;-4.498;2023-03-13T08:31:27;13.19;76.48
69944;DHT22;57257;48.408;-4.498;2023-03-13T08:33:53;13.19;76.48
69944;DHT22;57257;48.408;-4.498;2023-03-13T08:36:27;13.19;76.62
69944;DHT22;57257;48.408;-4.498;2023-03-13T08:38:54;13.18;76.74
69944;DHT22;57257;48.408;-4.498;2023-03-13T08:41:22;13.26;76.78
69944;DHT22;57257;48.408;-4.498;2023-03-13T08:43:48;13.26;76.57
69944;DHT22;57257;48.408;-4.498;2023-03-13T08:46:15;13.29;76.47
69944;DHT22;57257;48.408;-4.498;2023-03-13T08:48:41;13.29;76.42
69944;DHT22;57257;48.408;-4.498;2023-03-13T08:51:12;13.30;76.41
69944;DHT22;57257;48.408;-4.498;2023-03-13T08:53:39;13.30;76.39
69944;DHT22;57257;48.408;-4.498;2023-03-13T08:56:05;13.28;76.31
69944;DHT22;57257;48.408;-4.498;2023-03-13T08:58:31;13.34;76.58
69944;DHT22;57257;48.408;-4.498;2023-03-13T09:01:13;13.39;76.39
69944;DHT22;57257;48.408;-4.498;2023-03-13T09:03:40;13.50;76.11
69944;DHT22;57257;48.408;-4.498;2023-03-13T09:06:06;13.56;75.81
69944;DHT22;57257;48.408;-4.498;2023-03-13T09:08:32;13.62;75.45
69944;DHT22;57257;48.408;-4.498;2023-03-13T09:11:02;13.67;75.16
69944;DHT22;57257;48.408;-4.498;2023-03-13T09:13:29;13.74;75.00
69944;DHT22;57257;48.408;-4.498;2023-03-13T09:15:55;13.79;74.51
69944;DHT22;57257;48.408;-4.498;2023-03-13T09:18:21;13.91;74.43
69944;DHT22;57257;48.408;-4.498;2023-03-13T09:20:47;14.06;74.41
69944;DHT22;57257;48.408;-4.498;2023-03-13T09:23:12;14.24;73.40
69944;DHT22;57257;48.408;-4.498;2023-03-13T09:25:38;14.30;72.67
69944;DHT22;57257;48.408;-4.498;2023-03-13T09:28:04;14.21;72.43
69944;DHT22;57257;48.408;-4.498;2023-03-13T09:30:29;14.18;72.35
69944;DHT22;57257;48.408;-4.498;2023-03-13T09:32:55;14.16;72.44
69944;DHT22;57257;48.408;-4.498;2023-03-13T09:35:20;14.10;72.35
69944;DHT22;57257;48.408;-4.498;2023-03-13T09:37:46;14.10;72.52
69944;DHT22;57257;48.408;-4.498;2023-03-13T09:40:16;14.06;72.49
69944;DHT22;57257;48.408;-4.498;2023-03-13T09:42:49;14.00;72.65
69944;DHT22;57257;48.408;-4.498;2023-03-13T09:45:21;13.91;72.66
69944;DHT22;57257;48.408;-4.498;2023-03-13T09:47:57;13.89;72.61
69944;DHT22;57257;48.408;-4.498;2023-03-13T09:50:31;13.87;72.49
69944;DHT22;57257;48.408;-4.498;2023-03-13T09:53:03;14.00;72.65
69944;DHT22;57257;48.408;-4.498;2023-03-13T09:55:32;13.99;72.49
69944;DHT22;57257;48.408;-4.498;2023-03-13T09:58:10;14.07;72.34
69944;DHT22;57257;48.408;-4.498;2023-03-13T10:00:45;14.06;72.03
69944;DHT22;57257;48.408;-4.498;2023-03-13T10:03:20;14.00;71.90
69944;DHT22;57257;48.408;-4.498;2023-03-13T10:05:52;14.03;72.23
69944;DHT22;57257;48.408;-4.498;2023-03-13T10:08:37;14.02;72.10
69944;DHT22;57257;48.408;-4.498;2023-03-13T10:11:08;13.97;72.16
69944;DHT22;57257;48.408;-4.498;2023-03-13T10:13:41;13.97;72.31
69944;DHT22;57257;48.408;-4.498;2023-03-13T10:16:14;13.97;72.26
69944;DHT22;57257;48.408;-4.498;2023-03-13T10:18:48;13.97;72.54
69944;DHT22;57257;48.408;-4.498;2023-03-13T10:21:19;13.93;72.65
69944;DHT22;57257;48.408;-4.498;2023-03-13T10:23:50;13.90;72.87
69944;DHT22;57257;48.408;-4.498;2023-03-13T10:26:21;13.96;73.12
69944;DHT22;57257;48.408;-4.498;2023-03-13T10:28:50;13.96;73.18
69944;DHT22;57257;48.408;-4.498;2023-03-13T10:31:32;13.99;73.29
69944;DHT22;57257;48.408;-4.498;2023-03-13T10:34:09;14.00;73.42
69944;DHT22;57257;48.408;-4.498;2023-03-13T10:36:43;14.10;73.53
69944;DHT22;57257;48.408;-4.498;2023-03-13T10:39:20;14.02;73.38
69944;DHT22;57257;48.408;-4.498;2023-03-13T10:41:56;13.99;73.53
69944;DHT22;57257;48.408;-4.498;2023-03-13T10:44:23;13.94;73.71
69944;DHT22;57257;48.408;-4.498;2023-03-13T10:46:59;13.90;73.99
69944;DHT22;57257;48.408;-4.498;2023-03-13T10:49:26;13.96;74.12
69944;DHT22;57257;48.408;-4.498;2023-03-13T10:54:34;14.04;74.00
69944;DHT22;57257;48.408;-4.498;2023-03-13T10:59:51;14.18;74.08
69944;DHT22;57257;48.408;-4.498;2023-03-13T11:04:48;14.16;73.63
69944;DHT22;57257;48.408;-4.498;2023-03-13T11:07:40;14.17;73.51
69944;DHT22;57257;48.408;-4.498;2023-03-13T11:10:18;14.20;73.68
69944;DHT22;57257;48.408;-4.498;2023-03-13T11:12:46;14.18;73.41
69944;DHT22;57257;48.408;-4.498;2023-03-13T11:15:15;14.20;73.47
69944;DHT22;57257;48.408;-4.498;2023-03-13T11:17:41;14.14;73.07
69944;DHT22;57257;48.408;-4.498;2023-03-13T11:22:52;14.13;73.24
69944;DHT22;57257;48.408;-4.498;2023-03-13T11:27:57;14.23;73.05
69944;DHT22;57257;48.408;-4.498;2023-03-13T11:38:35;14.23;72.51
69944;DHT22;57257;48.408;-4.498;2023-03-13T11:52:11;14.20;73.26
69944;DHT22;57257;48.408;-4.498;2023-03-13T11:57:20;14.27;72.96
69944;DHT22;57257;48.408;-4.498;2023-03-13T12:02:56;14.33;72.70
69944;DHT22;57257;48.408;-4.498;2023-03-13T12:05:24;14.45;72.56
69944;DHT22;57257;48.408;-4.498;2023-03-13T12:08:01;14.54;72.24
69944;DHT22;57257;48.408;-4.498;2023-03-13T12:10:37;14.57;71.82
69944;DHT22;57257;48.408;-4.498;2023-03-13T12:13:21;14.63;71.76
69944;DHT22;57257;48.408;-4.498;2023-03-13T12:15:57;14.61;71.33
69944;DHT22;57257;48.408;-4.498;2023-03-13T12:18:35;14.63;71.25
69944;DHT22;57257;48.408;-4.498;2023-03-13T12:21:12;14.68;71.16
69944;DHT22;57257;48.408;-4.498;2023-03-13T12:26:16;14.95;70.25
69944;DHT22;57257;48.408;-4.498;2023-03-13T12:29:00;15.12;70.28
69944;DHT22;57257;48.408;-4.498;2023-03-13T12:31:41;15.22;69.40
69944;DHT22;57257;48.408;-4.498;2023-03-13T12:34:28;15.23;69.07
69944;DHT22;57257;48.408;-4.498;2023-03-13T12:37:23;15.19;68.87
69944;DHT22;57257;48.408;-4.498;2023-03-13T12:39:56;15.06;69.05
69944;DHT22;57257;48.408;-4.498;2023-03-13T12:44:56;14.85;69.80
69944;DHT22;57257;48.408;-4.498;2023-03-13T12:47:34;14.74;71.24
69944;DHT22;57257;48.408;-4.498;2023-03-13T12:50:10;14.54;71.87
69944;DHT22;57257;48.408;-4.498;2023-03-13T12:58:29;14.17;73.57
69944;DHT22;57257;48.408;-4.498;2023-03-13T13:01:00;14.09;74.00
69944;DHT22;57257;48.408;-4.498;2023-03-13T13:03:33;14.02;74.34
69944;DHT22;57257;48.408;-4.498;2023-03-13T13:08:43;14.03;74.83
69944;DHT22;57257;48.408;-4.498;2023-03-13T13:17:21;14.40;70.17
69944;DHT22;57257;48.408;-4.498;2023-03-13T13:19:48;14.37;68.97
69944;DHT22;57257;48.408;-4.498;2023-03-13T13:25:27;14.44;67.49
69944;DHT22;57257;48.408;-4.498;2023-03-13T13:27:53;14.41;67.01
69944;DHT22;57257;48.408;-4.498;2023-03-13T13:32:48;14.49;66.88
69944;DHT22;57257;48.408;-4.498;2023-03-13T13:35:32;14.51;66.59
69944;DHT22;57257;48.408;-4.498;2023-03-13T13:43:34;14.55;67.33
69944;DHT22;57257;48.408;-4.498;2023-03-13T13:48:45;14.54;67.56
69944;DHT22;57257;48.408;-4.498;2023-03-13T13:56:44;14.24;68.17
69944;DHT22;57257;48.408;-4.498;2023-03-13T13:59:21;14.07;68.31
69944;DHT22;57257;48.408;-4.498;2023-03-13T14:02:22;14.03;68.62
69944;DHT22;57257;48.408;-4.498;2023-03-13T14:05:00;13.96;68.83
69944;DHT22;57257;48.408;-4.498;2023-03-13T14:10:02;14.02;69.38
69944;DHT22;57257;48.408;-4.498;2023-03-13T14:12:32;14.21;69.54
69944;DHT22;57257;48.408;-4.498;2023-03-13T14:15:18;14.38;68.62
69944;DHT22;57257;48.408;-4.498;2023-03-13T14:17:54;14.24;68.56
69944;DHT22;57257;48.408;-4.498;2023-03-13T14:22:48;14.12;69.39
69944;DHT22;57257;48.408;-4.498;2023-03-13T14:25:14;14.04;69.52
69944;DHT22;57257;48.408;-4.498;2023-03-13T14:27:45;14.02;69.99
69944;DHT22;57257;48.408;-4.498;2023-03-13T14:30:14;14.03;70.03
69944;DHT22;57257;48.408;-4.498;2023-03-13T14:32:40;13.99;70.37
69944;DHT22;57257;48.408;-4.498;2023-03-13T14:35:07;14.06;71.08
69944;DHT22;57257;48.408;-4.498;2023-03-13T14:37:40;14.47;70.97
69944;DHT22;57257;48.408;-4.498;2023-03-13T14:40:25;15.08;68.81
69944;DHT22;57257;48.408;-4.498;2023-03-13T14:42:56;15.26;67.99
69944;DHT22;57257;48.408;-4.498;2023-03-13T14:45:27;15.59;66.39
69944;DHT22;57257;48.408;-4.498;2023-03-13T14:47:53;15.67;65.06
69944;DHT22;57257;48.408;-4.498;2023-03-13T14:50:23;15.66;66.14
69944;DHT22;57257;48.408;-4.498;2023-03-13T14:52:53;15.44;65.88
69944;DHT22;57257;48.408;-4.498;2023-03-13T14:58:03;15.87;66.04
69944;DHT22;57257;48.408;-4.498;2023-03-13T15:00:40;16.28;63.64
69944;DHT22;57257;48.408;-4.498;2023-03-13T15:05:43;16.79;62.92
69944;DHT22;57257;48.408;-4.498;2023-03-13T15:08:17;16.62;61.45
69944;DHT22;57257;48.408;-4.498;2023-03-13T15:10:43;16.14;62.37
69944;DHT22;57257;48.408;-4.498;2023-03-13T15:13:34;15.63;63.38
69944;DHT22;57257;48.408;-4.498;2023-03-13T15:16:01;15.23;64.43
69944;DHT22;57257;48.408;-4.498;2023-03-13T15:18:29;14.91;65.16
69944;DHT22;57257;48.408;-4.498;2023-03-13T15:21:19;14.75;65.76
69944;DHT22;57257;48.408;-4.498;2023-03-13T15:23:51;14.75;66.00
69944;DHT22;57257;48.408;-4.498;2023-03-13T15:26:17;14.85;65.79
69944;DHT22;57257;48.408;-4.498;2023-03-13T15:28:43;15.03;64.70
69944;DHT22;57257;48.408;-4.498;2023-03-13T15:31:11;15.01;64.82
69944;DHT22;57257;48.408;-4.498;2023-03-13T15:33:36;14.98;64.56
69944;DHT22;57257;48.408;-4.498;2023-03-13T15:36:02;14.78;64.94
69944;DHT22;57257;48.408;-4.498;2023-03-13T15:38:28;14.61;65.53
69944;DHT22;57257;48.408;-4.498;2023-03-13T15:40:53;14.34;66.13
69944;DHT22;57257;48.408;-4.498;2023-03-13T15:43:20;14.23;66.93
69944;DHT22;57257;48.408;-4.498;2023-03-13T15:45:48;14.17;67.35
69944;DHT22;57257;48.408;-4.498;2023-03-13T15:48:16;14.06;67.77
69944;DHT22;57257;48.408;-4.498;2023-03-13T15:50:44;14.03;68.27
69944;DHT22;57257;48.408;-4.498;2023-03-13T15:53:22;14.07;68.45
69944;DHT22;57257;48.408;-4.498;2023-03-13T15:55:49;14.13;68.71
69944;DHT22;57257;48.408;-4.498;2023-03-13T15:58:16;14.17;68.51
69944;DHT22;57257;48.408;-4.498;2023-03-13T16:00:42;14.14;68.60
69944;DHT22;57257;48.408;-4.498;2023-03-13T16:03:14;14.10;68.97
69944;DHT22;57257;48.408;-4.498;2023-03-13T16:05:40;14.04;69.09
69944;DHT22;57257;48.408;-4.498;2023-03-13T16:08:11;13.90;69.38
69944;DHT22;57257;48.408;-4.498;2023-03-13T16:10:37;13.84;69.81
69944;DHT22;57257;48.408;-4.498;2023-03-13T16:13:02;13.89;69.92
69944;DHT22;57257;48.408;-4.498;2023-03-13T16:15:28;13.87;69.82
69944;DHT22;57257;48.408;-4.498;2023-03-13T16:17:53;13.90;69.94
69944;DHT22;57257;48.408;-4.498;2023-03-13T16:20:21;13.83;69.91
69944;DHT22;57257;48.408;-4.498;2023-03-13T16:22:48;13.80;69.94
69944;DHT22;57257;48.408;-4.498;2023-03-13T16:25:15;13.76;69.92
69944;DHT22;57257;48.408;-4.498;2023-03-13T16:27:40;13.67;70.14
69944;DHT22;57257;48.408;-4.498;2023-03-13T16:30:24;13.67;70.32
69944;DHT22;57257;48.408;-4.498;2023-03-13T16:32:50;13.73;70.22
69944;DHT22;57257;48.408;-4.498;2023-03-13T16:35:16;13.69;69.85
69944;DHT22;57257;48.408;-4.498;2023-03-13T16:37:42;13.74;69.90
69944;DHT22;57257;48.408;-4.498;2023-03-13T16:40:31;13.79;70.06
69944;DHT22;57257;48.408;-4.498;2023-03-13T16:42:58;13.79;70.09
69944;DHT22;57257;48.408;-4.498;2023-03-13T16:45:23;13.79;70.36
69944;DHT22;57257;48.408;-4.498;2023-03-13T16:47:49;13.79;70.76
69944;DHT22;57257;48.408;-4.498;2023-03-13T16:52:40;13.72;70.90
69944;DHT22;57257;48.408;-4.498;2023-03-13T16:55:05;13.69;71.12
69944;DHT22;57257;48.408;-4.498;2023-03-13T16:57:31;13.67;71.49
69944;DHT22;57257;48.408;-4.498;2023-03-13T16:59:57;13.58;72.17
69944;DHT22;57257;48.408;-4.498;2023-03-13T17:02:22;13.43;72.98
69944;DHT22;57257;48.408;-4.498;2023-03-13T17:04:47;13.29;73.81
69944;DHT22;57257;48.408;-4.498;2023-03-13T17:07:20;13.22;74.44
69944;DHT22;57257;48.408;-4.498;2023-03-13T17:09:47;13.11;75.00